Airfield :
LOGIN :

Register | Disclaimer

   EN    FR    IT 

 










Legend :    VFR   Marginal VFR   IFR   Intensive IFR   Very Intensive IFR
Visi :
Ceiling :
>= 8 km
>= 3000ft
5 to 8 km
1000 to 3000 ft
1500m to 5 km
500 to 1000 ft
800 to 1500m
200 to 500 ft
< 800m
< 200 ft
Symbols :   Thunderstorms  Fog  Heavy snow  Heavy precipitations  Wind > 20 kt
SIGMETs :     Misc.  Thunderstorms  Icing  Turbulence  Mountain Waves  Volcanic Ashes






- Airport Elevation : 3100 ft
- IATA code : NAV


LTAZ - Kapadokya

CURRENT METAR :
  • 231820Z 14004KT 110V190 CAVOK M02/M05 Q1026 RMK RWY29 17003KT

EXPIRED METARs :
  • 231750Z 14004KT CAVOK M01/M05 Q1026 RMK RWY29 19003KT
  • 231720Z 08004KT CAVOK M00/M04 Q1026 RMK RWY29 00000KT
  • 231650Z 21006KT CAVOK 00/M05 Q1026
  • 231620Z 22005KT 210V270 CAVOK 01/M04 Q1026
  • 231550Z 28002KT CAVOK 03/M04 Q1026 RMK RWY29 29003KT

TAF TAF LTAZ
Valid from the 23 at 18:00 until the 24 at 18:00 UTC


231640Z 2318/2418 VRB02KT CAVOK



MET'MAP, your aeronautical weather chart ! - Copyright ORBIFLY December 2007 - Disclaimer

ORBIFLY MET'MAP TEAM :

Programming & Development : Alexandra Zaïnal
Concept & original design : Baudouin d'Aumeries
Assistance for programming : Marc-Olivier Méhu
Technical & hardware support : Manuel Goepfert

Contact : metmap@orbifly.com




SOURCES & CREDITS :

   NOAA